createdAt,value
2022-09-22T00:00:25.787Z,5.55
2022-09-22T00:05:28.139Z,4.90
2022-09-22T00:10:30.443Z,4.90
2022-09-22T00:15:32.805Z,5.68
2022-09-22T00:20:35.190Z,4.57
2022-09-22T00:25:40.629Z,5.55
2022-09-22T00:30:43.239Z,6.50
2022-09-22T00:35:45.603Z,5.18
2022-09-22T00:40:48.280Z,5.68
2022-09-22T00:45:53.807Z,4.93
2022-09-22T00:50:58.363Z,4.88
2022-09-22T00:56:14.288Z,5.18
2022-09-22T01:01:17.280Z,5.60
2022-09-22T01:06:22.928Z,4.90
2022-09-22T01:11:26.207Z,5.60
2022-09-22T01:16:54.390Z,5.43
2022-09-22T01:22:05.307Z,5.78
2022-09-22T01:27:32.977Z,5.25
2022-09-22T01:33:00.925Z,5.25
2022-09-22T01:43:20.531Z,4.40
2022-09-22T01:48:28.641Z,4.78
2022-09-22T01:53:34.905Z,4.88
2022-09-22T01:58:43.540Z,4.10
2022-09-22T02:04:00.367Z,4.90
2022-09-22T02:09:05.456Z,3.77
2022-09-22T02:14:08.087Z,4.90
2022-09-22T02:19:19.721Z,4.57
2022-09-22T02:24:32.471Z,4.90
2022-09-22T02:29:39.652Z,5.00
2022-09-22T02:34:43.070Z,5.60
2022-09-22T02:40:02.300Z,4.97
2022-09-22T02:45:07.372Z,4.88
2022-09-22T02:50:12.389Z,3.88
2022-09-22T02:55:14.821Z,4.50
2022-09-22T03:00:17.224Z,5.05
2022-09-22T03:05:19.752Z,5.30
2022-09-22T03:10:22.397Z,5.05
2022-09-22T03:15:27.151Z,4.28
2022-09-22T03:20:29.699Z,4.45
2022-09-22T03:25:32.002Z,3.47
2022-09-22T03:30:35.936Z,3.20
2022-09-22T03:35:38.515Z,3.53
2022-09-22T03:40:41.316Z,3.42
2022-09-22T03:45:43.856Z,3.63
2022-09-22T03:50:46.418Z,3.58
2022-09-22T03:55:48.933Z,3.40
2022-09-22T04:00:51.266Z,3.50
2022-09-22T04:05:53.704Z,3.45
2022-09-22T04:10:57.740Z,3.58
2022-09-22T04:16:00.079Z,4.38
2022-09-22T04:21:02.449Z,4.43
2022-09-22T04:26:05.922Z,4.65
2022-09-22T04:31:08.287Z,4.05
2022-09-22T04:36:10.697Z,4.35
2022-09-22T04:41:13.066Z,3.65
2022-09-22T04:46:15.418Z,4.20
2022-09-22T04:51:17.786Z,9.18
2022-09-22T04:56:20.154Z,6.63
2022-09-22T05:01:22.583Z,4.75
2022-09-22T05:06:25.033Z,7.03
2022-09-22T05:11:27.308Z,4.18
2022-09-22T05:16:31.399Z,4.40
2022-09-22T05:21:33.782Z,4.78
2022-09-22T05:26:36.149Z,3.83
2022-09-22T05:31:38.545Z,5.15
2022-09-22T05:36:41.588Z,5.78
2022-09-22T05:41:43.979Z,4.93
2022-09-22T05:46:46.888Z,4.80
2022-09-22T05:51:52.249Z,4.85
2022-09-22T05:56:56.211Z,4.10
2022-09-22T06:01:59.793Z,4.22
2022-09-22T06:07:02.742Z,3.78
2022-09-22T06:12:05.261Z,4.47
2022-09-22T06:17:11.951Z,4.30
2022-09-22T06:22:14.292Z,3.17
2022-09-22T06:27:17.076Z,4.25
2022-09-22T06:32:19.617Z,4.00
2022-09-22T06:37:23.485Z,4.50
2022-09-22T06:42:25.849Z,3.92
2022-09-22T06:47:28.353Z,4.55
2022-09-22T06:52:31.158Z,4.82
2022-09-22T06:57:34.177Z,4.80
2022-09-22T07:02:36.873Z,4.45
2022-09-22T07:07:39.168Z,4.68
2022-09-22T07:12:41.411Z,5.57
2022-09-22T07:17:43.797Z,5.93
2022-09-22T07:22:46.227Z,5.03
2022-09-22T07:27:49.227Z,4.47
2022-09-22T07:32:51.646Z,4.93
2022-09-22T07:38:03.746Z,4.63
2022-09-22T07:43:06.029Z,5.05
2022-09-22T07:48:27.179Z,5.15
2022-09-22T07:53:29.510Z,5.20
2022-09-22T07:58:31.968Z,4.30
2022-09-22T08:03:38.156Z,3.72
2022-09-22T08:08:46.291Z,4.20
2022-09-22T08:13:55.666Z,4.47
2022-09-22T08:19:00.762Z,3.28
2022-09-22T08:24:04.561Z,3.10
2022-09-22T08:29:07.995Z,2.58
2022-09-22T08:34:10.477Z,3.53
2022-09-22T08:39:13.106Z,2.05
2022-09-22T08:44:23.089Z,2.15
2022-09-22T08:49:55.385Z,1.40
2022-09-22T08:55:01.194Z,1.10
2022-09-22T09:00:08.087Z,1.08
2022-09-22T09:05:10.358Z,1.17
2022-09-22T09:10:32.957Z,1.92
2022-09-22T09:16:35.615Z,1.75
2022-09-22T09:21:45.040Z,1.50
2022-09-22T09:26:48.509Z,2.45
2022-09-22T09:31:55.437Z,1.27
2022-09-22T09:37:08.007Z,0.93
2022-09-22T09:42:19.965Z,0.68
2022-09-22T09:47:49.441Z,1.00
2022-09-22T09:52:53.185Z,0.70
2022-09-22T09:58:29.945Z,0.90
2022-09-22T10:03:37.063Z,0.90
2022-09-22T10:08:44.920Z,0.50
2022-09-22T10:13:56.723Z,0.50
2022-09-22T10:18:58.968Z,0.70
2022-09-22T10:24:01.515Z,0.70
2022-09-22T10:29:21.173Z,0.70
2022-09-22T10:34:37.310Z,1.00
2022-09-22T10:39:45.654Z,1.48
2022-09-22T10:44:48.976Z,1.63
2022-09-22T10:50:08.638Z,1.08
2022-09-22T10:55:25.875Z,0.60
2022-09-22T11:00:28.772Z,0.60
2022-09-22T11:06:07.478Z,0.93
2022-09-22T11:11:45.426Z,0.80
2022-09-22T11:16:50.434Z,1.17
2022-09-22T11:21:55.892Z,1.02
2022-09-22T11:27:01.305Z,0.80
2022-09-22T11:32:15.276Z,0.68
2022-09-22T11:37:52.943Z,0.80
2022-09-22T11:42:55.484Z,0.70
2022-09-22T11:48:16.061Z,0.50
2022-09-22T11:53:39.515Z,2.03
2022-09-22T11:58:44.644Z,0.70
2022-09-22T12:03:56.098Z,0.43
2022-09-22T12:09:18.758Z,0.80
2022-09-22T12:14:21.419Z,0.60
2022-09-22T12:19:45.759Z,0.70
2022-09-22T12:24:48.561Z,0.60
2022-09-22T12:30:22.472Z,0.70
2022-09-22T12:35:31.395Z,0.50
2022-09-22T12:40:41.660Z,0.50
2022-09-22T12:45:44.338Z,0.88
2022-09-22T12:50:46.713Z,0.60
2022-09-22T12:55:58.456Z,1.05
2022-09-22T13:01:32.729Z,2.30
2022-09-22T13:06:38.416Z,0.63
2022-09-22T13:12:14.747Z,0.32
2022-09-22T13:17:37.207Z,0.63
2022-09-22T13:22:39.558Z,0.55
2022-09-22T13:27:41.939Z,0.43
2022-09-22T13:32:51.121Z,0.63
2022-09-22T13:37:56.335Z,0.60
2022-09-22T13:43:01.697Z,0.60
2022-09-22T13:48:13.888Z,0.80
2022-09-22T13:53:19.046Z,0.90
2022-09-22T13:58:30.203Z,0.60
2022-09-22T14:03:37.880Z,0.77
2022-09-22T14:08:40.847Z,0.60
2022-09-22T14:13:58.529Z,0.50
2022-09-22T14:19:16.233Z,0.43
2022-09-22T14:24:19.309Z,0.45
2022-09-22T14:29:27.236Z,1.00
2022-09-22T14:34:32.247Z,0.77
2022-09-22T14:39:34.542Z,1.10
2022-09-22T14:44:42.885Z,1.40
2022-09-22T14:49:45.486Z,1.02
2022-09-22T14:54:47.871Z,1.15
2022-09-22T15:00:13.320Z,0.98
2022-09-22T15:05:29.440Z,1.40
2022-09-22T15:10:34.246Z,0.93
2022-09-22T15:15:47.831Z,2.75
2022-09-22T15:21:13.204Z,1.75
2022-09-22T15:26:26.614Z,3.17
2022-09-22T15:31:30.109Z,4.00
2022-09-22T15:36:33.486Z,3.03
2022-09-22T15:41:35.792Z,1.40
2022-09-22T15:46:38.694Z,1.40
2022-09-22T15:51:41.519Z,2.53
2022-09-22T15:56:44.735Z,4.47
2022-09-22T16:01:47.429Z,2.30
2022-09-22T16:06:56.965Z,1.85
2022-09-22T16:12:00.141Z,2.00
2022-09-22T16:17:02.555Z,2.10
2022-09-22T16:22:06.062Z,2.53
2022-09-22T16:27:08.460Z,2.80
2022-09-22T16:32:11.831Z,4.25
2022-09-22T16:37:15.209Z,4.35
2022-09-22T16:42:23.513Z,4.75
2022-09-22T16:47:26.480Z,6.60
2022-09-22T16:52:32.114Z,8.02
2022-09-22T16:57:35.601Z,8.37
2022-09-22T17:02:37.965Z,13.15
2022-09-22T17:07:40.622Z,13.90
2022-09-22T17:12:43.703Z,11.10
2022-09-22T17:17:46.193Z,9.60
2022-09-22T17:22:48.812Z,10.57
2022-09-22T17:27:51.185Z,10.35
2022-09-22T17:32:53.622Z,13.90
2022-09-22T17:37:55.975Z,11.55
2022-09-22T17:42:58.501Z,11.18
2022-09-22T17:48:19.659Z,12.38
2022-09-22T17:53:40.672Z,13.45
2022-09-22T17:58:43.152Z,15.25
2022-09-22T18:03:46.324Z,13.23
2022-09-22T18:08:49.016Z,18.05
2022-09-22T18:13:51.345Z,15.68
2022-09-22T18:18:53.819Z,16.77
2022-09-22T18:23:56.207Z,16.92
2022-09-22T18:28:59.133Z,18.33
2022-09-22T18:34:01.435Z,19.33
2022-09-22T18:39:04.774Z,20.33
2022-09-22T18:44:09.316Z,17.98
2022-09-22T18:49:13.359Z,15.80
2022-09-22T18:54:17.668Z,17.33
2022-09-22T18:59:23.561Z,16.02
2022-09-22T19:04:27.131Z,14.95
2022-09-22T19:09:29.462Z,18.65
2022-09-22T19:14:36.361Z,27.25
2022-09-22T19:19:42.217Z,14.90
2022-09-22T19:24:46.190Z,18.23
2022-09-22T19:29:49.197Z,16.38
2022-09-22T19:34:53.822Z,16.38
2022-09-22T19:39:56.537Z,14.25
2022-09-22T19:44:59.287Z,11.88
2022-09-22T19:50:01.570Z,10.63
2022-09-22T19:55:04.976Z,11.80
2022-09-22T20:00:17.735Z,11.73
2022-09-22T20:05:21.532Z,11.82
2022-09-22T20:10:24.402Z,12.77
2022-09-22T20:15:27.853Z,14.95
2022-09-22T20:20:33.047Z,15.65
2022-09-22T20:25:35.474Z,13.15
2022-09-22T20:30:38.447Z,14.45
2022-09-22T20:35:40.792Z,15.00
2022-09-22T20:40:43.533Z,13.60
2022-09-22T20:45:45.943Z,16.70
2022-09-22T20:50:58.613Z,14.77
2022-09-22T20:56:06.226Z,15.77
2022-09-22T21:01:10.605Z,15.73
2022-09-22T21:06:13.606Z,18.50
2022-09-22T21:11:17.986Z,17.25
2022-09-22T21:16:20.424Z,20.90
2022-09-22T21:21:22.937Z,18.95
2022-09-22T21:26:25.610Z,25.30
2022-09-22T21:31:28.631Z,20.92
2022-09-22T21:36:31.071Z,18.52
2022-09-22T21:41:33.427Z,17.17
2022-09-22T21:46:41.063Z,16.15
2022-09-22T21:51:44.539Z,16.58
2022-09-22T21:56:46.854Z,21.88
2022-09-22T22:01:49.201Z,19.40
2022-09-22T22:06:52.160Z,22.90
2022-09-22T22:11:57.251Z,22.13
2022-09-22T22:17:02.298Z,19.52
2022-09-22T22:22:05.458Z,17.95
2022-09-22T22:27:10.290Z,16.17
2022-09-22T22:32:12.652Z,15.77
2022-09-22T22:37:16.931Z,17.75
2022-09-22T22:42:19.293Z,17.10
2022-09-22T22:47:21.834Z,19.52
2022-09-22T22:52:24.149Z,21.35
2022-09-22T22:57:26.551Z,20.58
2022-09-22T23:02:30.837Z,21.15
2022-09-22T23:07:33.209Z,16.88
2022-09-22T23:12:37.249Z,14.45
2022-09-22T23:17:39.826Z,13.82
2022-09-22T23:22:42.189Z,13.63
2022-09-22T23:27:48.421Z,14.07
2022-09-22T23:32:50.735Z,12.43
2022-09-22T23:37:53.108Z,11.77
2022-09-22T23:42:55.425Z,15.45
2022-09-22T23:47:57.846Z,14.18
2022-09-22T23:53:00.132Z,10.65
2022-09-22T23:58:02.480Z,13.88
